Mertens, TX (76666)

11:47 PM CDT on May 25, 2015 (GMT -0500)
Schulz Farms | | Change Station
CLOSE
Current Station
Personal Weather Station
Location: Malone, TX
Elevation: 535 ft
Nearby Weather Stations

Elev 535 ft 31.96 °N, 96.90 °W | Updated 14 minutes ago

Partly Cloudy
Partly Cloudy
64.4 °F
Feels Like 64.4 °F
N
4.7
Wind Variable Wind from SSE

Today
High -- | Low -- °F
--% Chance of Precip.
Yesterday
High -- | Low -- °F
Precip. -- in
6:24 AM 8:24 PM
First Quarter, 54% visible
Pressure 29.92 in
Visibility 7.0 miles
Clouds Overcast 900 ft
Dew Point 64 °F
Humidity 99%
Rainfall 0.55 in
Snow Depth Not available.
UV 0 out of 12
Pollen 4.00 out of 12
Air Quality Not available.
Flu Activity Sporadic
METAR KINJ 260435Z AUTO 17004KT 7SM OVC009 18/17 A2992 RMK AO2 T01780170

More Conditions Fewer Conditions

Pressure 29.92 in
Visibility 7.0 miles
Clouds Overcast 900 ft
Dew Point 64 °F
Humidity 99%
Rainfall 0.55 in
Snow Depth Not available.
UV 0 out of 12
Pollen 4.00 out of 12
Air Quality Not available.
Flu Activity Sporadic
METAR KINJ 260435Z AUTO 17004KT 7SM OVC009 18/17 A2992 RMK AO2 T01780170

More Conditions Fewer Conditions

10-Day Weather Forecast

Almanac

Astronomy

May. 25, 2015 Rise Set
Actual Time
Civil Twilight
Nautical Twilight
Astronomical Twilight
Moon
Length of Visible Light
Length of Day
Tomorrow will be .
, % of the Moon is Illuminated

Today's Extremes

State Highs State Lows

Community

WunderPhotos

Upload Photos

1,824,280 photos uploaded!

WunderBlogs® & News

Nearby

Air Quality

  Air Quality AQ Index Pollutant
Not available.

Snow Depth

Station Depth Elevation

Earthquake Activity

City Distance Mag. Time & Date
Minimum magnitude displayed is 2.5.

Coastal Water Temperatures

Place Temperature

Stations

Nearby Weather Stations

Station Location Temp. Windchill Dew Point Humidity Wind Precip. Elev Updated Type